Time;durP1;ratioP1;P1;durP2;ratioP2;P2;SDS_P1;SDS_P2;PMS_P1;PMS_P2;Temp;Humidity;BMP_temperature;BMP_pressure;BME280_temperature;BME280_humidity;BME280_pressure;Samples;Min_cycle;Max_cycle;Signal;HPM_P1;HPM_P2
2022/06/10 00:01:31;;;;;;;1.38;0.98;;;;;;;18.92;80.20;99204.69;5055315;28;20041;-62
2022/06/10 00:04:03;;;;;;;2.45;2.25;;;;;;;18.91;80.22;99201.25;5055186;28;20049;-64
2022/06/10 00:06:34;;;;;;;2.67;2.08;;;;;;;18.88;80.15;99206.56;5054955;28;20056;-65
2022/06/10 00:09:04;;;;;;;1.38;1.25;;;;;;;18.87;80.25;99209.22;5054836;28;20068;-63
2022/06/10 00:11:33;;;;;;;3.15;2.05;;;;;;;18.86;80.27;99207.53;5055138;28;20041;-64
2022/06/10 00:14:05;;;;;;;1.90;1.57;;;;;;;18.85;80.35;99200.69;5054729;28;20066;-63
2022/06/10 00:16:34;;;;;;;2.05;1.45;;;;;;;18.88;80.42;99200.56;5055015;28;20390;-65
2022/06/10 00:19:06;;;;;;;1.08;0.98;;;;;;;18.88;80.30;99206.56;5054635;28;20127;-64
2022/06/10 00:21:36;;;;;;;0.93;0.80;;;;;;;18.88;80.18;99208.31;5055247;28;20542;-62
2022/06/10 00:24:06;;;;;;;1.58;1.40;;;;;;;18.87;80.14;99206.63;5054876;28;20122;-62
2022/06/10 00:26:35;;;;;;;;;;;;;;;18.85;80.16;99211.03;5054969;28;20045;-64
2022/06/10 00:29:06;;;;;;;1.20;1.10;;;;;;;18.85;80.22;99205.84;5054470;28;19921;-63
2022/06/10 00:31:41;;;;;;;0.90;0.90;;;;;;;18.80;80.21;99202.59;5054481;28;20068;-62
2022/06/10 00:34:09;;;;;;;1.20;1.10;;;;;;;18.82;80.29;99211.13;5054751;28;20045;-64
2022/06/10 00:36:40;;;;;;;0.60;0.60;;;;;;;18.78;80.33;99204.44;5054618;28;20407;-64
2022/06/10 00:39:08;;;;;;;1.13;1.02;;;;;;;18.76;80.21;99209.66;5054623;28;20045;-62
2022/06/10 00:41:41;;;;;;;0.93;0.83;;;;;;;18.76;80.36;99214.84;5054516;28;20037;-64
2022/06/10 00:44:32;;;;;;;0.93;0.93;;;;;;;18.76;80.41;99212.25;5054469;28;20507;-64
2022/06/10 00:47:02;;;;;;;1.35;1.25;;;;;;;18.79;80.20;99211.28;5054178;28;20049;-64
2022/06/10 00:49:32;;;;;;;2.50;1.27;;;;;;;18.82;80.28;99200.78;5054013;28;20049;-63
2022/06/10 00:52:02;;;;;;;1.38;1.27;;;;;;;18.82;80.21;99201.66;5054073;28;20110;-64
2022/06/10 00:54:36;;;;;;;1.13;1.02;;;;;;;18.63;79.94;99175.72;5053980;28;20488;-63
2022/06/10 00:57:11;;;;;;;1.35;1.25;;;;;;;18.78;79.86;99210.44;5053998;28;20500;-64
2022/06/10 00:59:43;;;;;;;0.80;0.80;;;;;;;18.81;79.83;99225.84;5054007;28;20049;-62
2022/06/10 01:02:15;;;;;;;1.55;1.42;;;;;;;18.82;79.88;99226.66;5053894;28;20099;-64
2022/06/10 01:04:44;;;;;;;0.75;0.75;;;;;;;18.78;79.96;99219.94;5054106;28;20558;-65
2022/06/10 01:07:19;;;;;;;1.03;0.93;;;;;;;18.77;79.73;99228.59;5054112;28;20045;-63
2022/06/10 01:09:50;;;;;;;3.10;2.00;;;;;;;18.78;79.77;99230.28;5053749;28;20294;-63
2022/06/10 01:12:45;;;;;;;3.42;1.60;;;;;;;18.79;79.75;99226.81;5053745;28;20056;-63
2022/06/10 01:15:28;;;;;;;1.25;1.15;;;;;;;18.76;79.72;99227.78;5053633;28;20059;-63
2022/06/10 01:18:22;;;;;;;2.90;1.02;;;;;;;18.77;79.70;99226.00;5053658;28;20110;-62
2022/06/10 01:21:08;;;;;;;1.40;1.30;;;;;;;18.81;79.58;99219.81;5053910;28;20049;-64
2022/06/10 01:24:12;;;;;;;1.13;0.75;;;;;;;18.82;79.63;99224.91;5053900;28;20049;-64
2022/06/10 01:30:23;;;;;;;1.55;1.45;;;;;;;18.80;79.57;99229.31;5053521;28;20527;-62
2022/06/10 01:33:18;;;;;;;1.13;0.90;;;;;;;18.82;79.53;99234.41;5053777;28;20045;-64
2022/06/10 01:36:00;;;;;;;3.20;1.30;;;;;;;18.83;79.53;99233.53;5053354;28;20102;-64
2022/06/10 01:38:38;;;;;;;1.23;1.10;;;;;;;18.80;79.40;99233.63;5083514;28;20052;-63
2022/06/10 01:41:12;;;;;;;1.75;1.25;;;;;;;18.81;79.19;99235.34;5094392;28;20072;-64
2022/06/10 01:43:53;;;;;;;1.20;1.08;;;;;;;18.78;79.38;99245.81;5094142;28;20391;-62
2022/06/10 01:46:30;;;;;;;2.60;1.67;;;;;;;18.79;79.33;99253.47;5094044;28;20166;-63
2022/06/10 01:49:09;;;;;;;1.70;1.40;;;;;;;18.80;79.39;99254.31;5093746;28;20380;-63
2022/06/10 01:51:53;;;;;;;1.10;0.82;;;;;;;18.79;79.18;99260.41;5093561;28;20052;-64
2022/06/10 01:54:32;;;;;;;1.10;1.05;;;;;;;18.81;79.33;99262.03;5093453;28;20488;-64
2022/06/10 01:57:06;;;;;;;3.38;1.75;;;;;;;18.83;79.27;99269.72;5093726;28;20058;-63
2022/06/10 01:59:39;;;;;;;2.28;1.40;;;;;;;18.81;78.97;99269.81;5093442;28;20048;-62
2022/06/10 02:02:12;;;;;;;1.38;1.27;;;;;;;18.82;79.22;99268.03;5093743;28;20040;-63
2022/06/10 02:04:47;;;;;;;1.08;0.98;;;;;;;18.80;79.16;99264.66;5093362;28;20048;-63
2022/06/10 02:07:21;;;;;;;1.45;1.35;;;;;;;18.66;79.28;99244.56;5093607;28;20044;-63
2022/06/10 02:10:03;;;;;;;2.08;1.85;;;;;;;18.85;79.13;99275.66;5093317;28;20127;-64
2022/06/10 02:12:35;;;;;;;1.77;1.10;;;;;;;18.68;79.15;99255.66;5093290;28;20048;-62
2022/06/10 02:15:08;;;;;;;1.52;0.77;;;;;;;18.79;79.46;99283.69;5093623;28;20399;-65
2022/06/10 02:17:41;;;;;;;1.55;1.45;;;;;;;18.52;79.23;99236.53;5093490;28;20487;-63
2022/06/10 02:20:19;;;;;;;1.35;1.00;;;;;;;18.76;79.32;99281.22;5093145;28;20570;-64
2022/06/10 02:23:02;;;;;;;1.67;1.52;;;;;;;18.79;79.40;99286.28;5093514;28;20071;-63
2022/06/10 02:25:44;;;;;;;2.30;1.52;;;;;;;18.83;79.28;99290.41;5093459;28;20048;-65
2022/06/10 02:28:19;;;;;;;1.30;1.10;;;;;;;18.85;79.36;99293.78;5093077;28;20048;-64
2022/06/10 02:30:55;;;;;;;1.00;0.93;;;;;;;18.87;79.29;99291.97;5093220;28;20052;-62
2022/06/10 02:33:24;;;;;;;1.77;1.42;;;;;;;18.88;79.12;99293.66;5093205;28;20048;-64
2022/06/10 02:35:59;;;;;;;1.25;1.15;;;;;;;18.86;79.03;99301.47;5093106;28;20041;-63
2022/06/10 02:38:36;;;;;;;1.27;1.17;;;;;;;18.85;79.16;99301.53;5092835;28;20131;-64
2022/06/10 02:41:12;;;;;;;1.35;1.13;;;;;;;18.87;79.02;99302.31;5093097;28;20495;-63
2022/06/10 02:43:48;;;;;;;2.85;2.38;;;;;;;18.89;78.97;99316.88;5093367;28;20078;-62
2022/06/10 02:46:22;;;;;;;1.67;1.25;;;;;;;18.92;78.67;99310.72;5093906;28;20086;-64
2022/06/10 02:49:02;;;;;;;1.08;0.88;;;;;;;18.96;78.71;99322.63;5096512;28;20079;-63
2022/06/10 02:51:32;;;;;;;;;;;;;;;18.93;78.76;99322.78;5096969;28;20079;-64
2022/06/10 02:54:02;;;;;;;1.52;1.15;;;;;;;18.93;78.59;99327.94;5096888;28;20330;-63
2022/06/10 02:56:40;;;;;;;1.65;1.45;;;;;;;18.92;78.65;99326.25;5096875;28;20048;-63
2022/06/10 03:02:12;;;;;;;1.63;1.38;;;;;;;18.91;78.66;99334.94;5096423;28;20054;-63
2022/06/10 03:04:59;;;;;;;1.40;1.27;;;;;;;18.90;78.61;99343.56;5096982;28;20487;-64
2022/06/10 03:07:43;;;;;;;0.70;0.70;;;;;;;18.92;78.51;99346.94;5096386;28;20047;-63
2022/06/10 03:10:24;;;;;;;1.30;1.20;;;;;;;18.92;78.49;99357.28;5096174;28;20048;-64
2022/06/10 03:13:09;;;;;;;1.10;1.00;;;;;;;18.94;78.45;99360.66;5096199;28;20054;-65
2022/06/10 03:15:52;;;;;;;1.60;1.42;;;;;;;18.84;78.54;99346.38;5096542;28;20054;-65
2022/06/10 03:18:27;;;;;;;1.33;1.23;;;;;;;18.94;78.17;99363.22;5096445;28;20047;-65
2022/06/10 03:21:16;;;;;;;1.40;1.25;;;;;;;18.74;78.23;99351.94;5096666;28;20036;-63
2022/06/10 03:23:55;;;;;;;1.60;1.30;;;;;;;18.90;78.46;99374.59;5095918;28;20131;-65
2022/06/10 03:26:31;;;;;;;1.30;1.20;;;;;;;18.91;78.19;99371.13;5095954;28;20055;-63
2022/06/10 03:29:10;;;;;;;4.72;2.78;;;;;;;18.90;78.10;99380.63;5096177;28;20071;-65
2022/06/10 03:31:41;;;;;;;4.63;2.13;;;;;;;18.91;78.32;99376.31;5096213;28;20050;-65
2022/06/10 03:34:17;;;;;;;2.30;1.35;;;;;;;18.89;78.24;99378.09;5095695;28;20071;-63
2022/06/10 03:36:48;;;;;;;1.02;0.93;;;;;;;18.93;78.18;99380.50;5095518;28;20056;-66
2022/06/10 03:39:20;;;;;;;2.58;1.02;;;;;;;18.96;78.12;99389.88;5096334;28;20048;-65
2022/06/10 03:41:59;;;;;;;1.60;1.00;;;;;;;18.95;78.21;99388.22;5095670;28;20143;-63
2022/06/10 03:44:29;;;;;;;2.08;1.40;;;;;;;18.98;78.27;99403.63;5095648;28;20046;-64
2022/06/10 03:46:58;;;;;;;;;;;;;;;19.02;78.32;99400.00;5095914;28;20044;-65
2022/06/10 03:49:32;;;;;;;2.17;1.52;;;;;;;19.06;78.36;99404.13;5095690;28;19920;-63
2022/06/10 03:52:02;;;;;;;0.95;0.90;;;;;;;19.05;78.40;99410.22;5095760;28;20059;-63
2022/06/10 03:54:32;;;;;;;2.47;1.67;;;;;;;19.03;78.63;99417.19;5096216;28;20131;-65
2022/06/10 03:57:25;;;;;;;1.67;1.30;;;;;;;19.02;78.56;99412.94;5095244;28;20091;-64
2022/06/10 03:59:54;;;;;;;0.73;0.73;;;;;;;18.98;78.71;99419.13;5076160;28;20079;-65
2022/06/10 04:02:23;;;;;;;1.43;1.33;;;;;;;19.00;78.82;99407.81;5095240;28;20054;-63
2022/06/10 04:04:52;;;;;;;0.97;0.93;;;;;;;19.04;78.92;99424.06;5095534;28;20036;-64
2022/06/10 04:07:21;;;;;;;1.20;1.02;;;;;;;19.06;79.09;99422.25;5095472;28;20040;-65
2022/06/10 04:10:09;;;;;;;1.15;1.05;;;;;;;19.05;78.91;99416.22;5094986;28;20047;-63
2022/06/10 04:12:44;;;;;;;1.27;1.17;;;;;;;19.05;78.87;99429.16;5095047;28;20134;-63
2022/06/10 04:15:16;;;;;;;15.48;2.38;;;;;;;19.03;78.84;99423.19;5095021;28;20078;-65
2022/06/10 04:17:46;;;;;;;1.13;1.02;;;;;;;19.04;78.91;99427.50;5093678;28;20524;-64
2022/06/10 04:20:18;;;;;;;0.40;0.40;;;;;;;19.09;78.72;99422.13;5094949;28;20042;-65
2022/06/10 04:22:47;;;;;;;1.30;1.20;;;;;;;19.04;78.76;99409.38;5094844;28;20575;-64
2022/06/10 04:25:18;;;;;;;0.90;0.88;;;;;;;19.25;78.18;99425.78;5095036;28;20399;-65
2022/06/10 04:27:46;;;;;;;0.95;0.93;;;;;;;19.31;78.05;99431.59;5094684;28;20046;-64
2022/06/10 04:30:22;;;;;;;1.07;0.97;;;;;;;19.35;77.75;99440.91;5094912;28;20044;-63
2022/06/10 04:32:55;;;;;;;1.23;1.13;;;;;;;19.41;77.53;99439.84;5094706;28;20044;-65
2022/06/10 04:35:25;;;;;;;1.50;1.40;;;;;;;19.42;77.45;99449.28;5094616;28;20047;-63
2022/06/10 04:37:55;;;;;;;1.20;0.93;;;;;;;19.49;77.34;99448.13;5094741;28;20054;-64
2022/06/10 04:40:29;;;;;;;1.25;1.15;;;;;;;19.48;77.19;99446.47;5094791;28;20052;-64
2022/06/10 04:42:59;;;;;;;0.82;0.82;;;;;;;19.52;77.15;99444.56;5094507;28;20058;-65
2022/06/10 04:45:31;;;;;;;0.82;0.80;;;;;;;19.55;77.08;99442.72;5094705;28;20075;-63
2022/06/10 04:48:00;;;;;;;0.60;0.60;;;;;;;19.58;76.86;99447.75;5094392;28;20055;-64
2022/06/10 04:50:30;;;;;;;1.95;0.88;;;;;;;19.64;76.75;99452.69;5094306;28;20522;-63
2022/06/10 04:52:59;;;;;;;;;;;;;;;19.72;76.66;99463.59;5094839;28;20048;-63
2022/06/10 04:55:29;;;;;;;1.83;1.63;;;;;;;19.76;76.47;99459.09;5094206;28;19926;-63
2022/06/10 04:57:58;;;;;;;2.22;0.98;;;;;;;19.81;76.17;99460.63;5094541;28;20776;-64
2022/06/10 05:00:30;;;;;;;0.90;0.82;;;;;;;19.84;75.94;99464.81;5094174;28;20068;-64
2022/06/10 05:02:58;;;;;;;1.52;1.40;;;;;;;19.90;75.85;99465.41;5094142;28;20051;-63
2022/06/10 05:05:28;;;;;;;1.13;1.03;;;;;;;19.98;75.70;99472.84;5094074;28;20044;-63
2022/06/10 05:07:57;;;;;;;0.95;0.88;;;;;;;20.06;75.82;99471.59;5094018;28;20127;-63
2022/06/10 05:10:28;;;;;;;0.70;0.70;;;;;;;20.08;75.46;99474.16;5093508;28;20028;-64
2022/06/10 05:12:58;;;;;;;1.10;1.02;;;;;;;20.18;75.45;99472.00;5093602;28;20044;-63
2022/06/10 05:15:28;;;;;;;1.83;1.48;;;;;;;20.30;75.21;99474.09;5094165;28;20048;-64
2022/06/10 05:17:59;;;;;;;1.05;0.98;;;;;;;20.46;74.83;99473.38;5094092;28;20044;-63
2022/06/10 05:20:31;;;;;;;1.63;0.90;;;;;;;20.61;74.17;99466.66;5093660;28;20052;-64
2022/06/10 05:23:01;;;;;;;0.75;0.75;;;;;;;20.69;73.50;99469.72;5093721;28;20054;-64
2022/06/10 05:25:34;;;;;;;0.80;0.80;;;;;;;20.68;73.29;99481.84;5093768;28;20055;-63
2022/06/10 05:28:06;;;;;;;0.80;0.80;;;;;;;20.66;72.72;99477.63;5093800;28;20518;-63
2022/06/10 05:30:36;;;;;;;0.55;0.55;;;;;;;20.65;72.73;99486.34;5093622;28;20066;-63
2022/06/10 05:33:10;;;;;;;6.82;1.42;;;;;;;20.63;72.39;99477.81;5093623;28;20059;-65
2022/06/10 05:35:39;;;;;;;0.60;0.60;;;;;;;20.66;72.67;99485.44;5093576;28;20582;-63
2022/06/10 05:38:08;;;;;;;0.70;0.70;;;;;;;20.59;72.58;99496.97;5093481;28;20052;-64
2022/06/10 05:40:50;;;;;;;0.60;0.60;;;;;;;20.48;72.38;99481.91;5093543;28;20101;-64
2022/06/10 05:43:20;;;;;;;;;;;;;;;20.62;72.44;99497.72;5094283;28;20048;-64
2022/06/10 05:45:50;;;;;;;3.33;0.88;;;;;;;20.62;72.76;99507.22;5093801;28;20382;-63
2022/06/10 05:48:19;;;;;;;1.30;1.20;;;;;;;20.60;72.49;99509.06;5093405;28;20518;-63
2022/06/10 05:50:48;;;;;;;1.55;1.45;;;;;;;20.64;72.61;99510.59;5093498;28;20186;-66
2022/06/10 05:53:16;;;;;;;1.08;0.82;;;;;;;20.63;72.63;99514.13;5093358;28;20040;-63
2022/06/10 05:55:45;;;;;;;0.88;0.88;;;;;;;20.66;72.38;99508.78;5093644;28;20142;-64
2022/06/10 05:58:14;;;;;;;1.67;1.58;;;;;;;20.67;72.58;99515.66;5093698;28;20172;-65
2022/06/10 06:00:44;;;;;;;;;;;;;;;20.70;72.70;99515.53;5093635;28;20071;-66
2022/06/10 06:03:29;;;;;;;1.10;1.00;;;;;;;20.64;72.59;99514.03;5093308;28;19924;-66
2022/06/10 06:05:57;;;;;;;0.73;0.73;;;;;;;20.65;72.44;99512.28;5093583;28;20042;-64
2022/06/10 06:08:36;;;;;;;0.70;0.70;;;;;;;20.62;72.48;99517.59;5093631;28;20483;-63
2022/06/10 06:11:20;;;;;;;1.52;0.70;;;;;;;20.63;72.62;99520.16;5093061;28;20289;-63
2022/06/10 06:13:49;;;;;;;1.40;1.30;;;;;;;20.59;72.64;99525.50;5093152;28;20101;-64
2022/06/10 06:16:21;;;;;;;1.00;0.93;;;;;;;20.55;72.53;99518.78;5093251;28;20044;-63
2022/06/10 06:18:51;;;;;;;0.60;0.60;;;;;;;20.54;72.62;99530.06;5093242;28;20048;-64
2022/06/10 06:21:20;;;;;;;1.40;0.50;;;;;;;20.56;72.71;99529.06;5095839;28;20068;-64
2022/06/10 06:23:50;;;;;;;0.65;0.65;;;;;;;20.57;72.65;99537.72;5097461;28;20086;-65
2022/06/10 06:26:18;;;;;;;1.20;0.90;;;;;;;20.52;72.65;99537.91;5097035;28;20040;-65
2022/06/10 06:28:48;;;;;;;0.70;0.70;;;;;;;20.53;72.52;99541.34;5096971;28;20040;-65
2022/06/10 06:31:17;;;;;;;0.55;0.55;;;;;;;20.58;72.74;99547.19;5096801;28;20047;-65
2022/06/10 06:33:47;;;;;;;;;;;;;;;20.57;72.66;99543.75;5097311;28;20050;-67
2022/06/10 06:36:22;;;;;;;0.60;0.60;;;;;;;20.59;72.55;99543.66;5097101;28;19942;-66
2022/06/10 06:38:51;;;;;;;1.67;1.38;;;;;;;20.61;72.57;99547.88;5095602;28;20056;-66
2022/06/10 06:41:21;;;;;;;;;;;;;;;20.61;72.61;99547.88;5097341;28;20040;-63
2022/06/10 06:43:51;;;;;;;1.30;1.20;;;;;;;20.63;72.66;99543.50;5096688;28;19920;-64
2022/06/10 06:46:20;;;;;;;1.20;1.10;;;;;;;20.64;72.22;99552.09;5095580;28;20498;-66
2022/06/10 06:48:54;;;;;;;1.08;1.00;;;;;;;20.68;72.31;99558.84;5096596;28;20059;-64
2022/06/10 06:51:22;;;;;;;0.60;0.60;;;;;;;20.72;72.04;99560.41;5096597;28;20048;-64
2022/06/10 06:53:52;;;;;;;0.70;0.70;;;;;;;20.77;71.71;99558.44;5096757;28;20040;-65
2022/06/10 06:56:20;;;;;;;0.98;0.85;;;;;;;20.78;71.31;99559.28;5096507;28;20275;-64
2022/06/10 06:58:49;;;;;;;0.83;0.83;;;;;;;20.83;71.32;99565.13;5096415;28;20040;-64
2022/06/10 07:01:19;;;;;;;0.60;0.60;;;;;;;20.85;70.98;99571.09;5096339;28;20048;-64
2022/06/10 07:03:48;;;;;;;0.70;0.70;;;;;;;20.90;71.23;99577.72;5096410;28;20052;-64
2022/06/10 07:06:19;;;;;;;0.68;0.68;;;;;;;20.91;71.27;99570.78;5096595;28;20101;-62
2022/06/10 07:08:48;;;;;;;0.80;0.80;;;;;;;20.89;70.91;99570.88;5096665;28;20510;-64
2022/06/10 07:11:18;;;;;;;1.60;1.00;;;;;;;20.93;70.70;99575.00;5096069;28;20067;-64
2022/06/10 07:13:50;;;;;;;0.63;0.63;;;;;;;20.92;70.54;99578.53;5096185;28;20080;-64
2022/06/10 07:16:19;;;;;;;1.23;0.75;;;;;;;21.00;70.37;99581.59;5095990;28;20036;-62
2022/06/10 07:18:48;;;;;;;0.68;0.68;;;;;;;21.03;70.19;99584.06;5096447;28;20125;-63
2022/06/10 07:21:22;;;;;;;1.38;1.25;;;;;;;21.07;70.02;99584.78;5095956;28;20044;-63
2022/06/10 07:23:51;;;;;;;0.93;0.80;;;;;;;21.13;69.63;99585.38;5095735;28;20048;-63
2022/06/10 07:26:25;;;;;;;0.80;0.80;;;;;;;21.21;69.47;99587.63;5096257;28;20032;-63
2022/06/10 07:28:54;;;;;;;0.93;0.85;;;;;;;21.28;69.19;99584.66;5096182;28;20046;-62
2022/06/10 07:31:26;;;;;;;2.20;1.52;;;;;;;21.42;68.74;99584.06;5095338;28;20059;-63
2022/06/10 07:33:57;;;;;;;0.80;0.80;;;;;;;21.54;68.42;99587.81;5095642;28;20044;-66
2022/06/10 07:36:27;;;;;;;0.50;0.50;;;;;;;21.66;67.90;99592.44;5095717;28;20127;-63
2022/06/10 07:38:57;;;;;;;1.83;1.00;;;;;;;21.80;67.55;99590.88;5095303;28;20086;-62
2022/06/10 07:44:08;;;;;;;0.70;0.70;;;;;;;22.18;66.54;99596.84;5095554;28;20329;-63
2022/06/10 07:46:37;;;;;;;0.80;0.80;;;;;;;22.35;65.90;99599.47;5095552;28;20044;-62
2022/06/10 07:49:06;;;;;;;1.15;1.05;;;;;;;22.58;65.53;99604.31;5095875;28;20398;-62
2022/06/10 07:51:36;;;;;;;0.80;0.80;;;;;;;22.76;64.74;99609.56;5095357;28;20079;-62
2022/06/10 07:54:08;;;;;;;1.58;1.25;;;;;;;22.93;64.01;99601.72;5095406;28;20083;-63
2022/06/10 07:56:37;;;;;;;4.25;1.20;;;;;;;23.08;63.17;99606.13;5095404;28;20052;-62
2022/06/10 07:59:06;;;;;;;1.85;0.82;;;;;;;23.23;62.70;99605.28;5095471;28;20097;-63
2022/06/10 08:01:35;;;;;;;1.20;1.10;;;;;;;23.33;62.30;99609.09;5095473;28;20521;-63
2022/06/10 08:04:08;;;;;;;0.60;0.60;;;;;;;23.27;62.16;99604.22;5095569;28;20117;-64
2022/06/10 08:06:41;;;;;;;1.10;0.98;;;;;;;23.32;62.04;99604.81;5095122;28;20063;-63
2022/06/10 08:09:11;;;;;;;0.95;0.90;;;;;;;23.45;62.28;99600.63;5095182;28;20142;-63
2022/06/10 08:11:40;;;;;;;;;;;;;;;23.56;61.94;99613.94;5095341;28;20566;-63
2022/06/10 08:14:09;;;;;;;;;;;;;;;23.65;61.39;99604.75;5095442;28;19927;-62
2022/06/10 08:16:38;;;;;;;4.38;0.95;;;;;;;23.74;61.61;99609.47;5094980;28;20026;-63
2022/06/10 08:19:07;;;;;;;0.85;0.75;;;;;;;23.78;61.82;99609.19;5095150;28;20048;-62
2022/06/10 08:24:48;;;;;;;1.13;1.02;;;;;;;23.67;61.38;99622.00;5094739;28;20084;-62
2022/06/10 08:27:17;;;;;;;1.40;1.30;;;;;;;23.49;61.23;99620.38;5094964;28;20070;-63
2022/06/10 08:29:46;;;;;;;0.82;0.82;;;;;;;23.44;61.94;99624.19;5094694;28;20048;-63
2022/06/10 08:32:15;;;;;;;0.40;0.40;;;;;;;23.31;61.46;99637.84;5094557;28;20052;-63
2022/06/10 08:34:47;;;;;;;0.70;0.70;;;;;;;23.34;61.71;99644.66;5095005;28;20323;-63
2022/06/10 08:37:17;;;;;;;1.42;1.33;;;;;;;23.33;61.74;99637.75;5094352;28;20056;-63
2022/06/10 08:39:46;;;;;;;1.15;1.02;;;;;;;23.27;61.79;99638.09;5094504;28;20132;-64
2022/06/10 08:42:27;;;;;;;1.60;1.25;;;;;;;23.21;62.35;99628.81;5094399;28;20105;-65
2022/06/10 08:44:59;;;;;;;1.15;1.00;;;;;;;23.15;62.14;99634.38;5093349;28;20070;-65
2022/06/10 08:47:37;;;;;;;1.00;0.93;;;;;;;23.11;62.26;99637.19;5094310;28;20078;-66
2022/06/10 08:50:19;;;;;;;1.63;1.25;;;;;;;23.08;62.25;99632.16;5094644;28;20074;-64
2022/06/10 08:52:58;;;;;;;3.78;1.08;;;;;;;23.17;62.52;99637.72;5094154;28;20054;-65
2022/06/10 08:55:43;;;;;;;0.65;0.65;;;;;;;23.15;62.16;99647.38;5094588;28;20070;-67
2022/06/10 08:58:28;;;;;;;0.65;0.65;;;;;;;23.13;62.08;99640.56;5094130;28;20043;-64
2022/06/10 09:01:00;;;;;;;1.13;1.00;;;;;;;23.23;62.84;99652.16;5094434;28;20468;-67
2022/06/10 09:03:35;;;;;;;8.40;1.60;;;;;;;23.20;62.58;99652.34;5093882;28;20415;-65
2022/06/10 09:06:08;;;;;;;4.35;1.92;;;;;;;23.20;62.60;99652.34;5094059;28;20062;-64
2022/06/10 09:08:42;;;;;;;1.45;1.10;;;;;;;23.17;62.49;99650.75;5093979;28;20050;-65
2022/06/10 09:11:21;;;;;;;1.75;1.30;;;;;;;23.21;62.36;99654.03;5094227;28;20396;-64
2022/06/10 09:13:57;;;;;;;1.20;1.10;;;;;;;23.29;62.35;99657.06;5093888;28;20514;-65
2022/06/10 09:16:31;;;;;;;0.90;0.90;;;;;;;23.35;62.46;99661.97;5093686;28;20139;-64
2022/06/10 09:19:16;;;;;;;1.15;1.05;;;;;;;23.40;62.17;99670.38;5094145;28;20097;-65
2022/06/10 09:21:53;;;;;;;0.70;0.60;;;;;;;23.43;61.86;99667.63;5093811;28;20518;-64
2022/06/10 09:24:28;;;;;;;10.00;2.10;;;;;;;23.46;61.48;99664.03;5094047;28;20475;-64
2022/06/10 09:27:06;;;;;;;0.98;0.90;;;;;;;23.48;61.37;99667.38;5094070;28;20499;-63
2022/06/10 09:29:37;;;;;;;2.83;1.73;;;;;;;23.50;61.21;99674.19;5093965;28;20082;-64
2022/06/10 09:32:10;;;;;;;1.95;1.25;;;;;;;23.50;61.19;99671.59;5093940;28;20479;-63
2022/06/10 09:34:51;;;;;;;0.60;0.60;;;;;;;23.52;60.86;99674.94;5093696;28;20044;-66
2022/06/10 09:37:31;;;;;;;0.82;0.77;;;;;;;23.55;60.71;99669.56;5093593;28;20067;-65
2022/06/10 09:42:56;;;;;;;1.40;1.30;;;;;;;23.53;60.55;99674.03;5093675;28;19943;-62
2022/06/10 09:45:35;;;;;;;0.80;0.80;;;;;;;23.68;60.73;99673.19;5093812;28;20499;-63
2022/06/10 09:48:20;;;;;;;0.77;0.75;;;;;;;23.71;59.79;99691.28;5093899;28;20044;-66
2022/06/10 09:51:00;;;;;;;1.02;0.95;;;;;;;23.62;59.40;99678.75;5093784;28;20097;-64
2022/06/10 09:53:40;;;;;;;1.48;1.00;;;;;;;23.60;59.46;99675.38;5093415;28;20040;-65
2022/06/10 09:56:37;;;;;;;1.40;0.95;;;;;;;23.66;59.64;99680.25;5096094;28;20044;-65
2022/06/10 09:59:20;;;;;;;0.50;0.50;;;;;;;23.76;60.25;99667.56;5097874;28;20503;-63
2022/06/10 10:02:04;;;;;;;0.75;0.73;;;;;;;23.76;59.66;99668.41;5097638;28;20083;-64
2022/06/10 10:04:47;;;;;;;1.08;0.98;;;;;;;23.83;59.24;99672.34;5097405;28;20044;-63
2022/06/10 10:07:27;;;;;;;0.60;0.60;;;;;;;23.92;59.41;99674.44;5097794;28;20487;-63
2022/06/10 10:10:11;;;;;;;0.52;0.52;;;;;;;23.92;58.64;99674.44;5097788;28;20514;-66
2022/06/10 10:12:54;;;;;;;1.35;1.25;;;;;;;23.92;58.50;99677.06;5097283;28;20097;-64
2022/06/10 10:15:29;;;;;;;0.65;0.65;;;;;;;24.10;59.04;99680.47;5097339;28;20040;-63
2022/06/10 10:18:17;;;;;;;0.68;0.68;;;;;;;24.27;58.95;99669.06;5097230;28;20048;-67
2022/06/10 10:21:02;;;;;;;0.82;0.82;;;;;;;24.36;58.74;99663.31;5097446;28;20044;-66
2022/06/10 10:23:34;;;;;;;0.93;0.93;;;;;;;24.52;58.77;99669.38;5097488;28;20419;-67
2022/06/10 10:26:06;;;;;;;0.63;0.63;;;;;;;24.59;58.62;99670.69;5097334;28;20534;-66
2022/06/10 10:28:42;;;;;;;0.50;0.50;;;;;;;24.64;58.40;99663.44;5097023;28;20067;-67
2022/06/10 10:31:19;;;;;;;1.15;1.05;;;;;;;24.63;57.48;99666.94;5097060;28;20040;-66
2022/06/10 10:34:01;;;;;;;1.85;1.23;;;;;;;24.74;58.12;99680.22;5097049;28;20051;-66
2022/06/10 10:36:47;;;;;;;1.75;1.17;;;;;;;24.67;57.52;99669.28;5096976;28;20044;-66
2022/06/10 10:39:27;;;;;;;1.17;1.08;;;;;;;24.71;57.76;99664.75;5097135;28;20498;-65
2022/06/10 10:41:59;;;;;;;0.77;0.77;;;;;;;24.84;58.25;99673.56;5097056;28;20044;-65
2022/06/10 10:44:44;;;;;;;0.50;0.50;;;;;;;24.92;58.10;99666.13;5096783;28;20123;-65
2022/06/10 10:47:21;;;;;;;1.42;1.10;;;;;;;24.92;57.94;99662.66;5096993;28;20437;-66
2022/06/10 10:50:20;;;;;;;0.82;0.80;;;;;;;24.87;57.61;99670.78;5096974;28;20462;-67
2022/06/10 10:52:49;;;;;;;0.80;0.80;;;;;;;24.85;57.56;99670.03;5054366;28;20049;-66
2022/06/10 10:55:25;;;;;;;0.60;0.60;;;;;;;24.88;57.61;99676.84;5054143;28;20191;-65
2022/06/10 10:58:08;;;;;;;0.95;0.77;;;;;;;24.83;57.19;99669.28;5054222;28;20049;-66
2022/06/10 11:00:42;;;;;;;1.02;0.70;;;;;;;24.87;57.60;99670.78;5054156;28;20135;-66
2022/06/10 11:03:25;;;;;;;0.63;0.63;;;;;;;24.97;57.20;99679.75;5054052;28;20095;-65
2022/06/10 11:06:00;;;;;;;1.48;0.90;;;;;;;24.97;56.45;99664.06;5054405;28;20059;-68
2022/06/10 11:08:37;;;;;;;0.50;0.50;;;;;;;24.92;56.83;99679.19;5053114;28;20045;-67
2022/06/10 11:11:21;;;;;;;0.52;0.52;;;;;;;25.01;57.42;99672.56;5077594;28;20051;-66
2022/06/10 11:14:31;;;;;;;0.88;0.85;;;;;;;25.05;57.32;99676.69;5096132;28;20131;-67
2022/06/10 11:17:15;;;;;;;;;;;;;;;24.93;56.49;99680.84;5096595;28;20048;-66
2022/06/10 11:19:55;;;;;;;0.57;0.57;;;;;;;24.82;56.67;99672.81;5096163;28;19927;-66
2022/06/10 11:22:28;;;;;;;0.57;0.57;;;;;;;24.85;57.34;99677.84;5096030;28;20135;-66
2022/06/10 11:25:22;;;;;;;0.60;0.60;;;;;;;24.86;57.19;99673.47;5095936;28;20056;-66
2022/06/10 11:28:04;;;;;;;0.50;0.50;;;;;;;24.84;57.46;99676.16;5096012;28;20040;-66
2022/06/10 11:30:49;;;;;;;1.65;1.17;;;;;;;24.87;57.13;99669.91;5096145;28;20124;-66
2022/06/10 11:33:25;;;;;;;1.80;0.90;;;;;;;24.97;57.50;99676.28;5095770;28;20052;-66
2022/06/10 11:36:07;;;;;;;1.00;0.88;;;;;;;24.94;56.64;99666.88;5095784;28;20130;-65
2022/06/10 11:38:49;;;;;;;0.75;0.73;;;;;;;24.89;56.69;99668.91;5095419;28;20127;-65
2022/06/10 11:41:30;;;;;;;1.55;0.90;;;;;;;24.83;56.51;99671.03;5095704;28;20047;-65
2022/06/10 11:44:06;;;;;;;0.68;0.68;;;;;;;24.79;56.53;99672.13;5095968;28;20036;-69
2022/06/10 11:46:48;;;;;;;0.90;0.60;;;;;;;24.68;56.03;99675.38;5095682;28;20052;-66
2022/06/10 11:49:25;;;;;;;1.17;1.08;;;;;;;24.59;56.18;99650.63;5095410;28;20044;-66
2022/06/10 11:52:02;;;;;;;0.70;0.70;;;;;;;24.54;55.93;99667.50;5095559;28;20044;-64
2022/06/10 11:54:39;;;;;;;0.65;0.60;;;;;;;24.50;56.56;99669.44;5095607;28;20058;-64
2022/06/10 12:00:12;;;;;;;0.93;0.77;;;;;;;24.51;56.22;99667.66;5095692;28;20048;-66
2022/06/10 12:02:45;;;;;;;0.68;0.68;;;;;;;24.58;55.81;99663.78;5094106;28;20078;-64
2022/06/10 12:05:36;;;;;;;1.10;0.90;;;;;;;24.63;55.70;99673.03;5095554;28;20557;-64
2022/06/10 12:08:17;;;;;;;0.80;0.80;;;;;;;24.68;55.76;99670.13;5095265;28;20514;-65
2022/06/10 12:10:54;;;;;;;1.35;1.15;;;;;;;24.80;55.69;99674.69;5095236;28;20470;-68
2022/06/10 12:13:27;;;;;;;1.10;0.85;;;;;;;24.88;54.97;99659.41;5095251;28;20373;-64
2022/06/10 12:15:58;;;;;;;0.80;0.80;;;;;;;25.16;54.51;99666.41;5095000;28;20044;-67
2022/06/10 12:18:31;;;;;;;0.50;0.50;;;;;;;25.35;54.39;99660.91;5094805;28;20048;-63
2022/06/10 12:21:05;;;;;;;0.60;0.60;;;;;;;25.65;54.18;99653.81;5095530;28;20101;-66
2022/06/10 12:23:56;;;;;;;0.70;0.70;;;;;;;25.75;52.74;99657.50;5094936;28;20063;-66
2022/06/10 12:26:47;;;;;;;1.25;1.13;;;;;;;25.83;52.63;99663.94;5094836;28;20071;-65
2022/06/10 12:29:36;;;;;;;0.57;0.52;;;;;;;25.70;51.66;99657.81;5095093;28;20055;-66
2022/06/10 12:32:24;;;;;;;0.50;0.50;;;;;;;25.65;52.53;99638.94;5095037;28;20109;-64